KNIP Airport (Jacksonville Nas (Towers Fld)) Information

FAA: NIP - ICAO: KNIP

KNIP Airport Location

State Florida
County Duval
City Jacksonville
KNIP Airport is 4 miles south of Jacksonville, FL.
Latitude 30-14-01.3417N
Longitude 081-40-33.8059W
Elevation 22ft

KNIP Airport METARs

METAR KNIP 251653Z 29004KT 10SM SCT022 BKN035 BKN080 BKN250 27/23 A2992 RMK AO2 SLP126 T02720228
Altimeter 29.92"
Temperature 27.2°C (81.0°F)
Wind 290° at 4KT
Clouds scattered at 2,200ft broken at 3,500ft broken at 8,000ft broken at 25,000ft
Visibility 10.0mi
Time observed: 2021-10-25T16:53:00Z

KNIP Airport Details

Status Operational
Activation May 1941
Ownership Military - Navy
Usage Private
Chart JACKSONVILLE
ATC on-site Yes
Beacon schedule sunset-sunrise
Beacon color split clear green

KNIP Airport Contacts

Owner US NAVY
Owner address OCEANOGRAPHIC OFC-CODE 3142, WASHINGTON, DC 20373
Owner phone N/A
Manager SEBASTIAN DEWHURST
Manager address 12722 MANNHURST OAK LANE, LITHIA, FL 33547
Manager phone 813-340-6780

KNIP Airport (Jacksonville Nas (Towers Fld)) Radio Frequencies

KNIP (Airport) Radio Frequencies

UNICOM N/A
Common traffic advisory frequency (CTAF) 125.15